sensor_id;sensor_type;location;lat;lon;timestamp;pressure;altitude;pressure_sealevel;temperature;humidity
10618;BME280;5356;43.526;26.534;2022-08-19T00:01:24;98698.16;;;25.34;100.00
10618;BME280;5356;43.526;26.534;2022-08-19T00:03:50;98693.25;;;25.18;100.00
10618;BME280;5356;43.526;26.534;2022-08-19T00:06:16;98701.97;;;25.03;100.00
10618;BME280;5356;43.526;26.534;2022-08-19T00:08:42;98700.50;;;25.05;100.00
10618;BME280;5356;43.526;26.534;2022-08-19T00:11:08;98707.19;;;25.08;100.00
10618;BME280;5356;43.526;26.534;2022-08-19T00:13:34;98704.47;;;25.08;100.00
10618;BME280;5356;43.526;26.534;2022-08-19T00:16:00;98705.97;;;25.05;100.00
10618;BME280;5356;43.526;26.534;2022-08-19T00:18:25;98712.84;;;25.03;100.00
10618;BME280;5356;43.526;26.534;2022-08-19T00:20:51;98714.75;;;25.02;100.00
10618;BME280;5356;43.526;26.534;2022-08-19T00:23:16;98716.41;;;24.95;100.00
10618;BME280;5356;43.526;26.534;2022-08-19T00:25:42;98716.72;;;24.93;100.00
10618;BME280;5356;43.526;26.534;2022-08-19T00:28:07;98715.63;;;24.94;100.00
10618;BME280;5356;43.526;26.534;2022-08-19T00:30:33;98721.06;;;24.94;100.00
10618;BME280;5356;43.526;26.534;2022-08-19T00:32:59;98710.81;;;24.91;100.00
10618;BME280;5356;43.526;26.534;2022-08-19T00:35:25;98708.91;;;24.92;100.00
10618;BME280;5356;43.526;26.534;2022-08-19T00:37:52;98710.00;;;24.91;100.00
10618;BME280;5356;43.526;26.534;2022-08-19T00:40:18;98709.22;;;24.90;100.00
10618;BME280;5356;43.526;26.534;2022-08-19T00:42:45;98706.81;;;24.89;100.00
10618;BME280;5356;43.526;26.534;2022-08-19T00:45:18;98712.44;;;24.83;100.00
10618;BME280;5356;43.526;26.534;2022-08-19T00:47:45;98710.53;;;24.75;100.00
10618;BME280;5356;43.526;26.534;2022-08-19T00:50:14;98711.50;;;24.71;100.00
10618;BME280;5356;43.526;26.534;2022-08-19T00:52:42;98712.97;;;24.68;100.00
10618;BME280;5356;43.526;26.534;2022-08-19T00:55:13;98712.19;;;24.59;100.00
10618;BME280;5356;43.526;26.534;2022-08-19T00:57:42;98699.22;;;24.56;100.00
10618;BME280;5356;43.526;26.534;2022-08-19T01:00:12;98698.56;;;24.59;100.00
10618;BME280;5356;43.526;26.534;2022-08-19T01:02:40;98712.03;;;24.55;100.00
10618;BME280;5356;43.526;26.534;2022-08-19T01:05:09;98705.97;;;24.50;100.00
10618;BME280;5356;43.526;26.534;2022-08-19T01:07:38;98707.72;;;24.46;100.00
10618;BME280;5356;43.526;26.534;2022-08-19T01:10:07;98700.03;;;24.39;100.00
10618;BME280;5356;43.526;26.534;2022-08-19T01:12:33;98708.06;;;24.27;100.00
10618;BME280;5356;43.526;26.534;2022-08-19T01:15:00;98712.06;;;24.12;100.00
10618;BME280;5356;43.526;26.534;2022-08-19T01:17:26;98714.94;;;24.07;100.00
10618;BME280;5356;43.526;26.534;2022-08-19T01:19:52;98709.31;;;24.03;100.00
10618;BME280;5356;43.526;26.534;2022-08-19T01:24:49;98701.66;;;24.05;100.00
10618;BME280;5356;43.526;26.534;2022-08-19T01:27:14;98702.13;;;24.07;100.00
10618;BME280;5356;43.526;26.534;2022-08-19T01:29:41;98703.09;;;24.03;100.00
10618;BME280;5356;43.526;26.534;2022-08-19T01:32:09;98710.16;;;24.04;100.00
10618;BME280;5356;43.526;26.534;2022-08-19T01:34:37;98708.53;;;24.03;100.00
10618;BME280;5356;43.526;26.534;2022-08-19T01:37:08;98713.50;;;24.01;100.00
10618;BME280;5356;43.526;26.534;2022-08-19T01:39:37;98707.72;;;24.02;100.00
10618;BME280;5356;43.526;26.534;2022-08-19T01:42:03;98708.53;;;24.03;100.00
10618;BME280;5356;43.526;26.534;2022-08-19T01:44:30;98711.41;;;23.97;100.00
10618;BME280;5356;43.526;26.534;2022-08-19T01:46:55;98702.78;;;23.95;100.00
10618;BME280;5356;43.526;26.534;2022-08-19T01:49:23;98711.75;;;23.96;100.00
10618;BME280;5356;43.526;26.534;2022-08-19T01:51:50;98720.22;;;23.94;100.00
10618;BME280;5356;43.526;26.534;2022-08-19T01:54:18;98715.09;;;23.93;100.00
10618;BME280;5356;43.526;26.534;2022-08-19T01:56:43;98709.97;;;23.91;100.00
10618;BME280;5356;43.526;26.534;2022-08-19T01:59:13;98704.88;;;23.90;100.00
10618;BME280;5356;43.526;26.534;2022-08-19T02:01:39;98708.53;;;23.85;100.00
10618;BME280;5356;43.526;26.534;2022-08-19T02:04:05;98710.47;;;23.85;100.00
10618;BME280;5356;43.526;26.534;2022-08-19T02:06:31;98713.31;;;23.80;100.00
10618;BME280;5356;43.526;26.534;2022-08-19T02:08:58;98709.81;;;23.70;100.00
10618;BME280;5356;43.526;26.534;2022-08-19T02:11:31;98709.47;;;23.72;100.00
10618;BME280;5356;43.526;26.534;2022-08-19T02:14:02;98709.81;;;23.70;100.00
10618;BME280;5356;43.526;26.534;2022-08-19T02:16:28;98705.91;;;23.63;100.00
10618;BME280;5356;43.526;26.534;2022-08-19T02:18:55;98706.53;;;23.51;100.00
10618;BME280;5356;43.526;26.534;2022-08-19T02:21:22;98702.69;;;23.43;100.00
10618;BME280;5356;43.526;26.534;2022-08-19T02:23:49;98700.16;;;23.47;100.00
10618;BME280;5356;43.526;26.534;2022-08-19T02:26:16;98706.03;;;23.40;100.00
10618;BME280;5356;43.526;26.534;2022-08-19T02:28:42;98702.66;;;23.35;100.00
10618;BME280;5356;43.526;26.534;2022-08-19T02:31:11;98706.81;;;23.32;100.00
10618;BME280;5356;43.526;26.534;2022-08-19T02:33:36;98708.72;;;23.31;100.00
10618;BME280;5356;43.526;26.534;2022-08-19T02:36:06;98708.41;;;23.24;100.00
10618;BME280;5356;43.526;26.534;2022-08-19T02:38:32;98710.13;;;23.20;100.00
10618;BME280;5356;43.526;26.534;2022-08-19T02:41:04;98711.25;;;23.19;100.00
10618;BME280;5356;43.526;26.534;2022-08-19T02:43:32;98719.53;;;23.14;100.00
10618;BME280;5356;43.526;26.534;2022-08-19T02:46:10;98730.72;;;23.13;100.00
10618;BME280;5356;43.526;26.534;2022-08-19T02:48:36;98725.28;;;23.13;100.00
10618;BME280;5356;43.526;26.534;2022-08-19T02:51:02;98727.69;;;23.14;100.00
10618;BME280;5356;43.526;26.534;2022-08-19T02:53:28;98730.25;;;23.11;100.00
10618;BME280;5356;43.526;26.534;2022-08-19T02:55:53;98739.50;;;23.09;100.00
10618;BME280;5356;43.526;26.534;2022-08-19T02:58:20;98730.25;;;23.11;100.00
10618;BME280;5356;43.526;26.534;2022-08-19T03:00:51;98731.34;;;23.09;100.00
10618;BME280;5356;43.526;26.534;2022-08-19T03:03:18;98736.31;;;23.07;100.00
10618;BME280;5356;43.526;26.534;2022-08-19T03:05:45;98744.47;;;23.07;100.00
10618;BME280;5356;43.526;26.534;2022-08-19T03:08:12;98745.25;;;23.08;100.00
10618;BME280;5356;43.526;26.534;2022-08-19T03:10:46;98738.53;;;23.05;100.00
10618;BME280;5356;43.526;26.534;2022-08-19T03:13:17;98743.97;;;23.05;100.00
10618;BME280;5356;43.526;26.534;2022-08-19T03:15:45;98745.09;;;23.04;100.00
10618;BME280;5356;43.526;26.534;2022-08-19T03:18:12;98743.97;;;23.05;100.00
10618;BME280;5356;43.526;26.534;2022-08-19T03:20:47;98741.91;;;23.11;100.00
10618;BME280;5356;43.526;26.534;2022-08-19T03:23:13;98740.63;;;23.08;100.00
10618;BME280;5356;43.526;26.534;2022-08-19T03:25:42;98760.13;;;23.11;100.00
10618;BME280;5356;43.526;26.534;2022-08-19T03:28:12;98752.44;;;23.13;100.00
10618;BME280;5356;43.526;26.534;2022-08-19T03:30:39;98752.44;;;23.13;100.00
10618;BME280;5356;43.526;26.534;2022-08-19T03:33:07;98755.50;;;23.11;100.00
10618;BME280;5356;43.526;26.534;2022-08-19T03:35:33;98756.94;;;23.08;100.00
10618;BME280;5356;43.526;26.534;2022-08-19T03:38:02;98754.72;;;23.11;100.00
10618;BME280;5356;43.526;26.534;2022-08-19T03:40:28;98759.16;;;23.06;100.00
10618;BME280;5356;43.526;26.534;2022-08-19T03:42:56;98766.81;;;23.04;100.00
10618;BME280;5356;43.526;26.534;2022-08-19T03:45:22;98758.81;;;22.99;100.00
10618;BME280;5356;43.526;26.534;2022-08-19T03:47:47;98764.88;;;22.96;100.00
10618;BME280;5356;43.526;26.534;2022-08-19T03:50:13;98763.03;;;22.92;100.00
10618;BME280;5356;43.526;26.534;2022-08-19T03:52:39;98760.66;;;22.90;100.00
10618;BME280;5356;43.526;26.534;2022-08-19T03:55:05;98766.88;;;22.91;100.00
10618;BME280;5356;43.526;26.534;2022-08-19T03:57:30;98770.06;;;22.93;100.00
10618;BME280;5356;43.526;26.534;2022-08-19T03:59:57;98769.28;;;22.92;100.00
10618;BME280;5356;43.526;26.534;2022-08-19T04:02:23;98767.06;;;22.94;100.00
10618;BME280;5356;43.526;26.534;2022-08-19T04:04:48;98769.28;;;22.92;100.00
10618;BME280;5356;43.526;26.534;2022-08-19T04:07:14;98770.56;;;22.95;100.00
10618;BME280;5356;43.526;26.534;2022-08-19T04:09:41;98765.25;;;22.90;100.00
10618;BME280;5356;43.526;26.534;2022-08-19T04:12:07;98766.09;;;22.90;100.00
10618;BME280;5356;43.526;26.534;2022-08-19T04:14:33;98768.81;;;22.90;100.00
10618;BME280;5356;43.526;26.534;2022-08-19T04:16:59;98772.44;;;22.85;100.00
10618;BME280;5356;43.526;26.534;2022-08-19T04:19:26;98770.69;;;22.90;100.00
10618;BME280;5356;43.526;26.534;2022-08-19T04:21:54;98768.31;;;22.88;100.00
10618;BME280;5356;43.526;26.534;2022-08-19T04:24:20;98770.69;;;22.90;100.00
10618;BME280;5356;43.526;26.534;2022-08-19T04:26:46;98772.50;;;22.94;100.00
10618;BME280;5356;43.526;26.534;2022-08-19T04:29:15;98775.50;;;22.93;100.00
10618;BME280;5356;43.526;26.534;2022-08-19T04:31:42;98774.22;;;22.90;100.00
10618;BME280;5356;43.526;26.534;2022-08-19T04:34:10;98779.03;;;22.93;100.00
10618;BME280;5356;43.526;26.534;2022-08-19T04:36:38;98778.91;;;22.98;100.00
10618;BME280;5356;43.526;26.534;2022-08-19T04:39:08;98782.63;;;23.02;100.00
10618;BME280;5356;43.526;26.534;2022-08-19T04:41:34;98787.75;;;23.04;100.00
10618;BME280;5356;43.526;26.534;2022-08-19T04:44:18;98787.13;;;23.07;100.00
10618;BME280;5356;43.526;26.534;2022-08-19T04:46:46;98789.41;;;23.14;100.00
10618;BME280;5356;43.526;26.534;2022-08-19T04:49:13;98791.16;;;23.18;100.00
10618;BME280;5356;43.526;26.534;2022-08-19T04:51:41;98786.59;;;23.27;100.00
10618;BME280;5356;43.526;26.534;2022-08-19T04:54:07;98793.78;;;23.32;100.00
10618;BME280;5356;43.526;26.534;2022-08-19T04:56:33;98790.13;;;23.37;100.00
10618;BME280;5356;43.526;26.534;2022-08-19T04:58:59;98788.72;;;23.39;100.00
10618;BME280;5356;43.526;26.534;2022-08-19T05:01:29;98791.28;;;23.44;100.00
10618;BME280;5356;43.526;26.534;2022-08-19T05:03:55;98785.38;;;23.51;100.00
10618;BME280;5356;43.526;26.534;2022-08-19T05:06:22;98786.06;;;23.57;100.00
10618;BME280;5356;43.526;26.534;2022-08-19T05:08:48;98789.72;;;23.61;100.00
10618;BME280;5356;43.526;26.534;2022-08-19T05:11:23;98796.78;;;23.62;100.00
10618;BME280;5356;43.526;26.534;2022-08-19T05:13:51;98798.06;;;23.56;100.00
10618;BME280;5356;43.526;26.534;2022-08-19T05:16:19;98796.66;;;23.67;100.00
10618;BME280;5356;43.526;26.534;2022-08-19T05:18:45;98798.78;;;23.79;100.00
10618;BME280;5356;43.526;26.534;2022-08-19T05:21:30;98787.75;;;23.75;100.00
10618;BME280;5356;43.526;26.534;2022-08-19T05:24:15;98800.06;;;23.81;100.00
10618;BME280;5356;43.526;26.534;2022-08-19T05:26:46;98795.44;;;23.90;100.00
10618;BME280;5356;43.526;26.534;2022-08-19T05:29:13;98801.19;;;23.97;100.00
10618;BME280;5356;43.526;26.534;2022-08-19T05:31:39;98803.31;;;24.01;100.00
10618;BME280;5356;43.526;26.534;2022-08-19T05:34:05;98801.06;;;24.03;100.00
10618;BME280;5356;43.526;26.534;2022-08-19T05:36:35;98790.03;;;24.08;100.00
10618;BME280;5356;43.526;26.534;2022-08-19T05:39:04;98791.00;;;24.12;100.00
10618;BME280;5356;43.526;26.534;2022-08-19T05:41:30;98794.84;;;24.28;100.00
10618;BME280;5356;43.526;26.534;2022-08-19T05:43:57;98791.97;;;24.33;100.00
10618;BME280;5356;43.526;26.534;2022-08-19T05:46:23;98787.63;;;24.41;100.00
10618;BME280;5356;43.526;26.534;2022-08-19T05:48:49;98794.69;;;24.51;100.00
10618;BME280;5356;43.526;26.534;2022-08-19T05:51:15;98792.16;;;24.63;100.00
10618;BME280;5356;43.526;26.534;2022-08-19T05:53:41;98787.63;;;24.67;100.00
10618;BME280;5356;43.526;26.534;2022-08-19T05:56:10;98788.09;;;24.78;100.00
10618;BME280;5356;43.526;26.534;2022-08-19T05:58:37;98784.72;;;24.90;100.00
10618;BME280;5356;43.526;26.534;2022-08-19T06:01:15;98781.66;;;25.00;100.00
10618;BME280;5356;43.526;26.534;2022-08-19T06:03:41;98788.53;;;25.06;100.00
10618;BME280;5356;43.526;26.534;2022-08-19T06:06:08;98786.59;;;25.15;100.00
10618;BME280;5356;43.526;26.534;2022-08-19T06:08:36;98791.03;;;25.28;100.00
10618;BME280;5356;43.526;26.534;2022-08-19T06:14:06;98778.06;;;25.55;100.00
10618;BME280;5356;43.526;26.534;2022-08-19T06:16:35;98776.25;;;25.68;100.00
10618;BME280;5356;43.526;26.534;2022-08-19T06:19:03;98785.66;;;25.79;100.00
10618;BME280;5356;43.526;26.534;2022-08-19T06:21:31;98783.09;;;26.04;100.00
10618;BME280;5356;43.526;26.534;2022-08-19T06:23:57;98782.28;;;26.24;100.00
10618;BME280;5356;43.526;26.534;2022-08-19T06:26:23;98786.38;;;26.39;100.00
10618;BME280;5356;43.526;26.534;2022-08-19T06:28:50;98786.91;;;26.53;100.00
10618;BME280;5356;43.526;26.534;2022-08-19T06:31:18;98784.91;;;26.62;100.00
10618;BME280;5356;43.526;26.534;2022-08-19T06:33:47;98776.19;;;26.81;100.00
10618;BME280;5356;43.526;26.534;2022-08-19T06:36:34;98781.94;;;27.01;100.00
10618;BME280;5356;43.526;26.534;2022-08-19T06:39:02;98770.03;;;27.18;100.00
10618;BME280;5356;43.526;26.534;2022-08-19T06:41:30;98780.50;;;27.28;100.00
10618;BME280;5356;43.526;26.534;2022-08-19T06:43:57;98764.47;;;27.39;100.00
10618;BME280;5356;43.526;26.534;2022-08-19T06:46:23;98766.75;;;27.49;100.00
10618;BME280;5356;43.526;26.534;2022-08-19T06:48:49;98759.91;;;27.55;100.00
10618;BME280;5356;43.526;26.534;2022-08-19T06:51:16;98760.66;;;27.68;100.00
10618;BME280;5356;43.526;26.534;2022-08-19T06:53:47;98763.88;;;27.82;100.00
10618;BME280;5356;43.526;26.534;2022-08-19T06:56:15;98762.94;;;27.90;100.00
10618;BME280;5356;43.526;26.534;2022-08-19T06:58:41;98765.31;;;28.04;100.00
10618;BME280;5356;43.526;26.534;2022-08-19T07:01:07;98765.53;;;28.11;100.00
10618;BME280;5356;43.526;26.534;2022-08-19T07:03:35;98759.47;;;28.18;100.00
10618;BME280;5356;43.526;26.534;2022-08-19T07:06:10;98759.94;;;28.20;100.00
10618;BME280;5356;43.526;26.534;2022-08-19T07:08:37;98767.38;;;28.35;99.90
10618;BME280;5356;43.526;26.534;2022-08-19T07:11:07;98766.00;;;28.54;99.66
10618;BME280;5356;43.526;26.534;2022-08-19T07:13:34;98768.66;;;28.66;98.91
10618;BME280;5356;43.526;26.534;2022-08-19T07:16:10;98765.31;;;28.73;98.36
10618;BME280;5356;43.526;26.534;2022-08-19T07:18:36;98764.00;;;28.82;98.56
10618;BME280;5356;43.526;26.534;2022-08-19T07:21:07;98758.00;;;28.93;96.75
10618;BME280;5356;43.526;26.534;2022-08-19T07:23:33;98759.34;;;28.99;96.31
10618;BME280;5356;43.526;26.534;2022-08-19T07:28:46;98766.09;;;29.17;94.27
10618;BME280;5356;43.526;26.534;2022-08-19T07:31:16;98763.81;;;29.19;93.98
10618;BME280;5356;43.526;26.534;2022-08-19T07:33:44;98761.75;;;29.32;94.28
10618;BME280;5356;43.526;26.534;2022-08-19T07:36:11;98756.72;;;29.34;92.41
10618;BME280;5356;43.526;26.534;2022-08-19T07:38:40;98765.28;;;29.48;91.74
10618;BME280;5356;43.526;26.534;2022-08-19T07:41:08;98766.06;;;29.49;90.05
10618;BME280;5356;43.526;26.534;2022-08-19T07:43:34;98761.09;;;29.54;89.34
10618;BME280;5356;43.526;26.534;2022-08-19T07:46:00;98765.53;;;29.59;89.44
10618;BME280;5356;43.526;26.534;2022-08-19T07:48:27;98763.94;;;29.74;89.08
10618;BME280;5356;43.526;26.534;2022-08-19T07:50:55;98768.38;;;29.79;88.91
10618;BME280;5356;43.526;26.534;2022-08-19T07:53:23;98771.31;;;29.89;87.83
10618;BME280;5356;43.526;26.534;2022-08-19T07:55:49;98766.78;;;29.97;87.50
10618;BME280;5356;43.526;26.534;2022-08-19T07:58:19;98765.66;;;29.98;84.17
10618;BME280;5356;43.526;26.534;2022-08-19T08:00:47;98764.34;;;30.11;85.71
10618;BME280;5356;43.526;26.534;2022-08-19T08:03:15;98758.75;;;30.24;84.76
10618;BME280;5356;43.526;26.534;2022-08-19T08:05:41;98754.84;;;30.25;85.56
10618;BME280;5356;43.526;26.534;2022-08-19T08:08:25;98755.19;;;30.42;84.62
10618;BME280;5356;43.526;26.534;2022-08-19T08:11:09;98757.22;;;30.46;81.57
10618;BME280;5356;43.526;26.534;2022-08-19T08:13:35;98759.81;;;30.58;82.59
10618;BME280;5356;43.526;26.534;2022-08-19T08:16:02;98743.00;;;30.63;81.78
10618;BME280;5356;43.526;26.534;2022-08-19T08:18:28;98752.63;;;30.73;80.86
10618;BME280;5356;43.526;26.534;2022-08-19T08:20:55;98746.91;;;30.81;81.68
10618;BME280;5356;43.526;26.534;2022-08-19T08:23:20;98742.66;;;30.84;82.27
10618;BME280;5356;43.526;26.534;2022-08-19T08:25:51;98749.91;;;30.96;80.88
10618;BME280;5356;43.526;26.534;2022-08-19T08:28:18;98745.69;;;31.02;81.00
10618;BME280;5356;43.526;26.534;2022-08-19T08:30:45;98749.13;;;30.95;76.78
10618;BME280;5356;43.526;26.534;2022-08-19T08:33:13;98735.69;;;30.90;75.61
10618;BME280;5356;43.526;26.534;2022-08-19T08:35:40;98739.06;;;31.03;77.15
10618;BME280;5356;43.526;26.534;2022-08-19T08:38:11;98747.84;;;31.12;74.88
10618;BME280;5356;43.526;26.534;2022-08-19T08:40:53;98743.91;;;31.13;74.54
10618;BME280;5356;43.526;26.534;2022-08-19T08:46:03;98749.56;;;31.20;75.18
10618;BME280;5356;43.526;26.534;2022-08-19T08:49:19;98752.41;;;31.27;73.24
10618;BME280;5356;43.526;26.534;2022-08-19T08:51:29;98740.56;;;31.23;73.18
10618;BME280;5356;43.526;26.534;2022-08-19T08:53:59;98741.25;;;31.40;73.31
10618;BME280;5356;43.526;26.534;2022-08-19T08:56:25;98737.53;;;31.55;73.38
10618;BME280;5356;43.526;26.534;2022-08-19T09:01:25;98739.09;;;31.56;70.02
10618;BME280;5356;43.526;26.534;2022-08-19T09:03:51;98730.16;;;31.63;70.13
10618;BME280;5356;43.526;26.534;2022-08-19T09:09:04;98737.41;;;31.48;68.82
10618;BME280;5356;43.526;26.534;2022-08-19T09:16:53;98736.81;;;31.88;65.87
10618;BME280;5356;43.526;26.534;2022-08-19T09:19:18;98730.91;;;31.90;63.55
10618;BME280;5356;43.526;26.534;2022-08-19T09:21:44;98724.00;;;32.00;63.54
10618;BME280;5356;43.526;26.534;2022-08-19T09:24:10;98736.25;;;32.02;62.44
10618;BME280;5356;43.526;26.534;2022-08-19T09:26:36;98726.53;;;32.15;62.13
10618;BME280;5356;43.526;26.534;2022-08-19T09:29:02;98724.34;;;32.28;62.88
10618;BME280;5356;43.526;26.534;2022-08-19T09:31:31;98736.63;;;32.34;62.38
10618;BME280;5356;43.526;26.534;2022-08-19T09:33:58;98731.47;;;32.33;62.50
10618;BME280;5356;43.526;26.534;2022-08-19T09:36:27;98730.81;;;32.43;61.58
10618;BME280;5356;43.526;26.534;2022-08-19T09:38:54;98733.09;;;32.37;60.44
10618;BME280;5356;43.526;26.534;2022-08-19T09:41:22;98735.66;;;32.19;59.48
10618;BME280;5356;43.526;26.534;2022-08-19T09:43:50;98732.88;;;32.16;59.61
10618;BME280;5356;43.526;26.534;2022-08-19T09:46:21;98725.75;;;32.15;60.41
10618;BME280;5356;43.526;26.534;2022-08-19T09:48:48;98726.38;;;32.01;59.00
10618;BME280;5356;43.526;26.534;2022-08-19T09:51:20;98721.13;;;32.23;59.98
10618;BME280;5356;43.526;26.534;2022-08-19T09:53:47;98721.44;;;32.48;58.87
10618;BME280;5356;43.526;26.534;2022-08-19T09:56:15;98725.47;;;32.57;58.20
10618;BME280;5356;43.526;26.534;2022-08-19T09:58:41;98725.50;;;32.61;58.62
10618;BME280;5356;43.526;26.534;2022-08-19T10:01:07;98726.63;;;32.53;58.88
10618;BME280;5356;43.526;26.534;2022-08-19T10:03:35;98720.53;;;32.40;58.00
10618;BME280;5356;43.526;26.534;2022-08-19T10:06:03;98717.81;;;32.43;56.43
10618;BME280;5356;43.526;26.534;2022-08-19T10:08:32;98717.66;;;32.63;55.58
10618;BME280;5356;43.526;26.534;2022-08-19T10:10:58;98729.16;;;32.72;55.54
10618;BME280;5356;43.526;26.534;2022-08-19T10:13:26;98715.69;;;33.01;56.65
10618;BME280;5356;43.526;26.534;2022-08-19T10:15:54;98712.53;;;33.06;54.95
10618;BME280;5356;43.526;26.534;2022-08-19T10:18:21;98708.66;;;33.14;55.71
10618;BME280;5356;43.526;26.534;2022-08-19T10:20:48;98720.47;;;33.11;55.23
10618;BME280;5356;43.526;26.534;2022-08-19T10:23:14;98720.44;;;33.04;56.39
10618;BME280;5356;43.526;26.534;2022-08-19T10:25:40;98714.19;;;33.18;56.12
10618;BME280;5356;43.526;26.534;2022-08-19T10:28:06;98719.81;;;33.28;54.41
10618;BME280;5356;43.526;26.534;2022-08-19T10:30:33;98718.69;;;33.40;54.54
10618;BME280;5356;43.526;26.534;2022-08-19T10:32:58;98714.72;;;33.34;52.28
10618;BME280;5356;43.526;26.534;2022-08-19T10:35:24;98708.13;;;33.49;53.41
10618;BME280;5356;43.526;26.534;2022-08-19T10:37:54;98709.03;;;33.64;53.35
10618;BME280;5356;43.526;26.534;2022-08-19T10:40:25;98719.00;;;33.83;53.25
10618;BME280;5356;43.526;26.534;2022-08-19T10:42:52;98722.53;;;33.80;52.90
10618;BME280;5356;43.526;26.534;2022-08-19T10:45:18;98717.06;;;33.91;51.07
10618;BME280;5356;43.526;26.534;2022-08-19T10:47:43;98708.34;;;33.85;51.12
10618;BME280;5356;43.526;26.534;2022-08-19T10:50:09;98705.22;;;33.94;50.40
10618;BME280;5356;43.526;26.534;2022-08-19T10:52:53;98713.78;;;33.67;50.75
10618;BME280;5356;43.526;26.534;2022-08-19T10:55:21;98715.13;;;33.33;49.53
10618;BME280;5356;43.526;26.534;2022-08-19T10:58:13;98709.19;;;33.30;50.80
10618;BME280;5356;43.526;26.534;2022-08-19T11:00:40;98704.94;;;33.44;50.39
10618;BME280;5356;43.526;26.534;2022-08-19T11:03:07;98710.69;;;33.80;50.65
10618;BME280;5356;43.526;26.534;2022-08-19T11:05:32;98702.16;;;34.06;49.91
10618;BME280;5356;43.526;26.534;2022-08-19T11:07:58;98708.84;;;34.05;50.15
10618;BME280;5356;43.526;26.534;2022-08-19T11:10:23;98704.84;;;33.95;49.87
10618;BME280;5356;43.526;26.534;2022-08-19T11:12:49;98707.13;;;33.79;49.87
10618;BME280;5356;43.526;26.534;2022-08-19T11:15:20;98706.59;;;33.52;50.15
10618;BME280;5356;43.526;26.534;2022-08-19T11:17:45;98698.00;;;33.68;49.34
10618;BME280;5356;43.526;26.534;2022-08-19T11:20:13;98693.78;;;33.99;48.64
10618;BME280;5356;43.526;26.534;2022-08-19T11:22:40;98684.81;;;34.20;48.30
10618;BME280;5356;43.526;26.534;2022-08-19T11:25:06;98680.06;;;34.17;48.42
10618;BME280;5356;43.526;26.534;2022-08-19T11:27:32;98685.50;;;34.03;48.41
10618;BME280;5356;43.526;26.534;2022-08-19T11:29:59;98693.75;;;33.88;49.18
10618;BME280;5356;43.526;26.534;2022-08-19T11:32:26;98683.88;;;33.84;48.41
10618;BME280;5356;43.526;26.534;2022-08-19T11:34:51;98670.97;;;34.16;48.56
10618;BME280;5356;43.526;26.534;2022-08-19T11:37:17;98675.41;;;34.42;48.35
10618;BME280;5356;43.526;26.534;2022-08-19T11:39:42;98673.47;;;34.68;47.37
10618;BME280;5356;43.526;26.534;2022-08-19T11:42:08;98675.78;;;34.48;47.00
10618;BME280;5356;43.526;26.534;2022-08-19T11:44:52;98663.50;;;34.28;46.72
10618;BME280;5356;43.526;26.534;2022-08-19T11:47:18;98660.75;;;34.42;46.41
10618;BME280;5356;43.526;26.534;2022-08-19T11:49:45;98652.50;;;34.63;46.17
10618;BME280;5356;43.526;26.534;2022-08-19T11:52:11;98658.84;;;34.89;46.05
10618;BME280;5356;43.526;26.534;2022-08-19T11:54:36;98654.50;;;34.88;45.96
10618;BME280;5356;43.526;26.534;2022-08-19T11:57:03;98660.41;;;34.61;45.46
10618;BME280;5356;43.526;26.534;2022-08-19T11:59:29;98659.97;;;34.45;45.49
10618;BME280;5356;43.526;26.534;2022-08-19T12:01:54;98653.31;;;34.60;45.18
10618;BME280;5356;43.526;26.534;2022-08-19T12:04:21;98656.47;;;34.70;45.12
10618;BME280;5356;43.526;26.534;2022-08-19T12:06:46;98658.00;;;34.53;45.07
10618;BME280;5356;43.526;26.534;2022-08-19T12:09:12;98658.03;;;34.63;45.00
10618;BME280;5356;43.526;26.534;2022-08-19T12:11:39;98654.88;;;34.83;44.75
10618;BME280;5356;43.526;26.534;2022-08-19T12:14:08;98654.09;;;34.82;44.43
10618;BME280;5356;43.526;26.534;2022-08-19T12:16:34;98652.88;;;34.55;43.54
10618;BME280;5356;43.526;26.534;2022-08-19T12:19:00;98650.13;;;34.58;43.62
10618;BME280;5356;43.526;26.534;2022-08-19T12:21:30;98644.59;;;34.76;43.47
10618;BME280;5356;43.526;26.534;2022-08-19T12:23:57;98635.50;;;34.94;43.93
10618;BME280;5356;43.526;26.534;2022-08-19T12:26:25;98643.44;;;35.06;42.78
10618;BME280;5356;43.526;26.534;2022-08-19T12:28:51;98642.22;;;35.21;42.91
10618;BME280;5356;43.526;26.534;2022-08-19T12:31:17;98636.63;;;35.43;43.14
10618;BME280;5356;43.526;26.534;2022-08-19T12:33:43;98647.31;;;35.44;41.50
10618;BME280;5356;43.526;26.534;2022-08-19T12:36:10;98640.53;;;35.52;41.58
10618;BME280;5356;43.526;26.534;2022-08-19T12:38:37;98640.53;;;35.52;41.20
10618;BME280;5356;43.526;26.534;2022-08-19T12:41:04;98636.66;;;35.32;40.79
10618;BME280;5356;43.526;26.534;2022-08-19T12:43:36;98640.56;;;35.60;41.18
10618;BME280;5356;43.526;26.534;2022-08-19T12:46:04;98640.88;;;35.80;40.80
10618;BME280;5356;43.526;26.534;2022-08-19T12:48:30;98641.66;;;35.87;40.13
10618;BME280;5356;43.526;26.534;2022-08-19T12:50:56;98641.25;;;35.85;39.47
10618;BME280;5356;43.526;26.534;2022-08-19T12:53:22;98642.75;;;36.01;40.15
10618;BME280;5356;43.526;26.534;2022-08-19T12:55:47;98638.31;;;36.17;38.86
10618;BME280;5356;43.526;26.534;2022-08-19T12:58:21;98636.69;;;36.27;38.86
10618;BME280;5356;43.526;26.534;2022-08-19T13:00:46;98638.22;;;36.35;38.84
10618;BME280;5356;43.526;26.534;2022-08-19T13:03:12;98644.50;;;36.43;38.49
10618;BME280;5356;43.526;26.534;2022-08-19T13:05:37;98633.13;;;36.27;38.53
10618;BME280;5356;43.526;26.534;2022-08-19T13:08:03;98635.00;;;36.40;38.92
10618;BME280;5356;43.526;26.534;2022-08-19T13:10:33;98634.16;;;36.47;38.46
10618;BME280;5356;43.526;26.534;2022-08-19T13:13:00;98631.44;;;36.44;38.23
10618;BME280;5356;43.526;26.534;2022-08-19T13:15:27;98634.47;;;36.63;37.88
10618;BME280;5356;43.526;26.534;2022-08-19T13:17:57;98637.03;;;36.89;37.73
10618;BME280;5356;43.526;26.534;2022-08-19T13:20:22;98627.81;;;36.99;37.34